Time;durP1;ratioP1;P1;durP2;ratioP2;P2;SDS_P1;SDS_P2;PMS_P1;PMS_P2;Temp;Humidity;BMP_temperature;BMP_pressure;BME280_temperature;BME280_humidity;BME280_pressure;Samples;Min_cycle;Max_cycle;Signal;HPM_P1;HPM_P2
2020/12/22 00:01:25;;;;;;;3.90;2.00;;;;;;;18.80;52.72;100244.59;5052826;28;20180;-63
2020/12/22 00:03:51;;;;;;;4.30;2.47;;;;;;;18.81;52.97;100245.44;5052026;28;20184;-64
2020/12/22 00:06:23;;;;;;;3.63;2.00;;;;;;;18.76;52.74;100237.84;5051985;28;20234;-63
2020/12/22 00:08:50;;;;;;;4.17;2.27;;;;;;;18.77;52.86;100234.09;5035275;28;20299;-64
2020/12/22 00:11:16;;;;;;;3.53;2.20;;;;;;;18.77;52.81;100241.41;5035345;28;20200;-64
2020/12/22 00:13:42;;;;;;;3.67;2.00;;;;;;;18.75;52.62;100240.75;5051769;28;20803;-64
2020/12/22 00:16:08;;;;;;;3.53;2.20;;;;;;;18.74;52.70;100233.63;5035072;28;20245;-63
2020/12/22 00:18:34;;;;;;;3.20;1.93;;;;;;;18.70;52.63;100234.00;5051587;28;20204;-64
2020/12/22 00:21:00;;;;;;;3.23;1.93;;;;;;;18.66;53.19;100229.94;5052579;28;20176;-66
2020/12/22 00:23:26;;;;;;;3.77;2.00;;;;;;;18.67;52.56;100226.19;5052522;28;20180;-66
2020/12/22 00:25:52;;;;;;;3.57;1.83;;;;;;;18.66;52.66;100229.94;5051506;28;20192;-64
2020/12/22 00:28:18;;;;;;;3.80;2.20;;;;;;;18.65;52.64;100225.53;5034213;28;20799;-64
2020/12/22 00:30:45;;;;;;;5.07;2.00;;;;;;;18.66;52.96;100223.66;5034820;28;20212;-64
2020/12/22 00:33:11;;;;;;;2.10;1.77;;;;;;;18.62;52.94;100215.06;5052296;28;20242;-64
2020/12/22 00:35:37;;;;;;;3.33;1.83;;;;;;;18.61;52.83;100218.75;5051403;28;20180;-64
2020/12/22 00:38:03;;;;;;;2.80;2.00;;;;;;;18.60;52.92;100222.50;5051325;28;20208;-63
2020/12/22 00:40:29;;;;;;;3.53;1.83;;;;;;;18.58;52.78;100234.53;5052110;28;20215;-66
2020/12/22 00:42:55;;;;;;;4.50;2.10;;;;;;;18.58;53.15;100232.69;5051199;28;20238;-67
2020/12/22 00:45:22;;;;;;;2.83;1.80;;;;;;;18.54;53.12;100244.91;5051135;28;20195;-67
2020/12/22 00:47:48;;;;;;;2.80;1.70;;;;;;;18.50;53.05;100243.59;5052056;28;20204;-64
2020/12/22 00:50:14;;;;;;;2.93;1.87;;;;;;;18.52;53.10;100241.53;5050610;28;20277;-63
2020/12/22 00:52:40;;;;;;;2.10;1.90;;;;;;;18.54;52.74;100250.34;5050101;28;20212;-64
2020/12/22 00:55:06;;;;;;;2.63;1.90;;;;;;;18.50;52.85;100242.75;5050097;28;20183;-64
2020/12/22 00:57:32;;;;;;;2.40;1.70;;;;;;;18.49;52.53;100244.59;5050630;28;20535;-65
2020/12/22 00:59:59;;;;;;;4.83;2.20;;;;;;;18.48;52.78;100255.63;5050116;28;20191;-67
2020/12/22 01:02:25;;;;;;;3.23;1.87;;;;;;;18.42;52.57;100235.47;5051060;28;20208;-66
2020/12/22 01:04:51;;;;;;;2.63;1.93;;;;;;;18.40;53.09;100242.94;5050146;28;20672;-65
2020/12/22 01:07:17;;;;;;;2.23;1.67;;;;;;;18.39;52.70;100235.84;5050812;28;20184;-64
2020/12/22 01:09:44;;;;;;;2.17;1.80;;;;;;;18.40;53.02;100218.56;5033779;28;20245;-64
2020/12/22 01:12:10;;;;;;;2.90;1.60;;;;;;;18.44;52.39;100238.00;5033548;28;20204;-65
2020/12/22 01:14:36;;;;;;;3.07;1.70;;;;;;;18.39;52.78;100243.97;5049926;28;20408;-64
2020/12/22 01:17:03;;;;;;;2.27;1.60;;;;;;;18.39;52.62;100235.84;5033345;28;20212;-64
2020/12/22 01:19:29;;;;;;;3.03;1.70;;;;;;;18.34;53.13;100243.69;5033552;28;20635;-64
2020/12/22 01:21:55;;;;;;;2.93;1.67;;;;;;;18.36;53.23;100228.09;5049880;28;20176;-64
2020/12/22 01:24:22;;;;;;;3.40;1.70;;;;;;;18.30;52.98;100226.94;5016924;28;20184;-64
2020/12/22 01:26:49;;;;;;;3.27;1.83;;;;;;;18.36;52.76;100236.22;5050768;28;20188;-64
2020/12/22 01:29:15;;;;;;;2.40;1.77;;;;;;;18.35;52.75;100213.69;5016799;28;20229;-65
2020/12/22 01:31:41;;;;;;;2.07;1.50;;;;;;;18.31;53.06;100235.91;5050568;28;20200;-67
2020/12/22 01:34:07;;;;;;;1.90;1.50;;;;;;;18.28;53.01;100238.97;5050471;28;20624;-65
2020/12/22 01:36:33;;;;;;;3.00;1.60;;;;;;;18.25;52.75;100240.19;5050394;28;20275;-65
2020/12/22 01:38:59;;;;;;;2.30;1.60;;;;;;;18.29;52.78;100221.69;5050171;28;20200;-64
2020/12/22 01:41:30;;;;;;;2.27;1.67;;;;;;;18.30;52.60;100228.81;5049696;28;20552;-64
2020/12/22 01:44:14;;;;;;;2.40;1.50;;;;;;;18.26;52.65;100224.75;5050547;28;20176;-65
2020/12/22 01:46:44;;;;;;;1.93;1.60;;;;;;;18.27;52.62;100229.16;5034508;28;20572;-64
2020/12/22 01:51:52;;;;;;;2.23;1.50;;;;;;;18.23;52.63;100236.81;5109154;27;20885;-64
2020/12/22 01:54:18;;;;;;;2.73;1.57;;;;;;;18.23;52.59;100236.81;5109267;28;20190;-64
2020/12/22 01:56:45;;;;;;;2.87;1.40;;;;;;;18.20;53.00;100237.13;5109264;28;20239;-65
2020/12/22 01:59:11;;;;;;;3.27;1.77;;;;;;;18.19;52.90;100237.31;5109145;28;20214;-64
2020/12/22 02:01:37;;;;;;;2.70;1.40;;;;;;;18.18;52.96;100235.63;5109564;28;20263;-66
2020/12/22 02:04:05;;;;;;;2.70;1.57;;;;;;;18.14;52.69;100237.84;5109304;28;20830;-67
2020/12/22 02:06:31;;;;;;;1.50;1.40;;;;;;;17.96;53.12;100213.72;5109101;28;20261;-66
2020/12/22 02:08:58;;;;;;;2.13;1.40;;;;;;;18.17;52.61;100245.63;5108795;28;20296;-67
2020/12/22 02:11:28;;;;;;;3.23;1.50;;;;;;;18.17;52.65;100244.78;5108840;28;20217;-64
2020/12/22 02:13:54;;;;;;;1.80;1.40;;;;;;;18.16;52.72;100256.63;5108789;28;20637;-64
2020/12/22 02:16:21;;;;;;;2.30;1.50;;;;;;;18.12;52.68;100247.16;5109118;28;20248;-64
2020/12/22 02:18:48;;;;;;;2.33;1.60;;;;;;;18.10;52.59;100237.34;5091092;28;20230;-64
2020/12/22 02:21:14;;;;;;;1.77;1.40;;;;;;;18.12;52.87;100252.59;5091078;28;20186;-64
2020/12/22 02:23:40;;;;;;;1.87;1.40;;;;;;;18.10;52.99;100247.34;5107886;28;20641;-64
2020/12/22 02:26:06;;;;;;;1.87;1.30;;;;;;;18.10;52.94;100241.94;5090880;28;20222;-65
2020/12/22 02:28:32;;;;;;;1.60;1.40;;;;;;;18.08;52.58;100242.13;5107620;28;20255;-64
2020/12/22 02:31:02;;;;;;;1.37;1.27;;;;;;;18.05;53.10;100245.19;5107703;28;20210;-65
2020/12/22 02:33:28;;;;;;;2.20;1.47;;;;;;;18.06;52.92;100238.75;5108746;28;20198;-67
2020/12/22 02:35:55;;;;;;;1.60;1.33;;;;;;;18.02;53.10;100218.44;5073701;28;20212;-64
2020/12/22 02:38:21;;;;;;;1.70;1.40;;;;;;;18.04;52.65;100231.81;5073800;28;20198;-64
2020/12/22 02:40:47;;;;;;;1.73;1.20;;;;;;;18.04;52.85;100229.94;5091308;28;20324;-64
2020/12/22 02:43:13;;;;;;;2.90;1.47;;;;;;;18.01;52.97;100233.00;5074323;28;20197;-64
2020/12/22 02:45:42;;;;;;;1.67;1.30;;;;;;;18.00;52.71;100233.19;5091050;28;20273;-64
2020/12/22 02:48:09;;;;;;;1.90;1.23;;;;;;;17.98;52.96;100246.91;5091072;28;20593;-64
2020/12/22 02:50:35;;;;;;;2.37;1.50;;;;;;;17.97;52.71;100231.66;5107324;28;20283;-66
2020/12/22 02:53:02;;;;;;;1.83;1.20;;;;;;;17.98;52.57;100238.78;5090422;28;20273;-66
2020/12/22 02:55:28;;;;;;;1.90;1.40;;;;;;;17.99;52.52;100245.06;5107253;28;20231;-66
2020/12/22 02:57:54;;;;;;;1.53;1.10;;;;;;;17.98;52.65;100249.63;5107130;28;20206;-64
2020/12/22 03:00:20;;;;;;;1.70;1.40;;;;;;;18.05;52.96;100252.47;5107254;28;20183;-63
2020/12/22 03:02:46;;;;;;;1.30;1.20;;;;;;;18.13;52.99;100243.44;5062589;28;20269;-64
2020/12/22 03:05:12;;;;;;;1.23;1.13;;;;;;;18.18;52.75;100246.47;5076608;28;20637;-64
2020/12/22 03:07:38;;;;;;;1.40;1.30;;;;;;;18.28;52.57;100250.66;5094248;28;20230;-64
2020/12/22 03:10:07;;;;;;;1.53;1.23;;;;;;;18.36;52.61;100252.47;5093283;28;20241;-65
2020/12/22 03:12:33;;;;;;;1.37;1.27;;;;;;;18.42;52.44;100238.19;5060011;28;20193;-64
2020/12/22 03:14:59;;;;;;;1.53;1.23;;;;;;;18.49;52.68;100252.75;5094361;28;20521;-63
2020/12/22 03:17:25;;;;;;;1.30;1.17;;;;;;;18.55;52.53;100246.59;5093376;28;20285;-63
2020/12/22 03:19:51;;;;;;;1.10;1.00;;;;;;;18.58;52.56;100240.81;5094303;28;20175;-64
2020/12/22 03:22:17;;;;;;;1.10;1.00;;;;;;;18.61;52.49;100256.72;5094080;28;20187;-64
2020/12/22 03:24:43;;;;;;;1.10;1.00;;;;;;;18.65;52.28;100260.78;5093032;28;20193;-64
2020/12/22 03:27:09;;;;;;;1.30;1.20;;;;;;;18.67;51.97;100260.59;5093093;28;20187;-64
2020/12/22 03:29:35;;;;;;;1.97;1.10;;;;;;;18.68;52.36;100257.69;5092827;28;20187;-64
2020/12/22 03:32:01;;;;;;;1.87;1.20;;;;;;;18.70;52.32;100255.69;5094066;28;20191;-65
2020/12/22 03:34:27;;;;;;;2.43;1.10;;;;;;;18.72;52.33;100246.53;5093895;28;20183;-65
2020/12/22 03:36:53;;;;;;;2.77;1.20;;;;;;;18.73;51.93;100259.06;5093182;28;20690;-66
2020/12/22 03:39:20;;;;;;;1.87;1.10;;;;;;;18.74;51.94;100249.91;5093564;28;20199;-64
2020/12/22 03:41:46;;;;;;;1.83;1.13;;;;;;;18.72;52.03;100258.22;5076100;28;20626;-67
2020/12/22 03:44:12;;;;;;;1.30;1.20;;;;;;;18.74;51.90;100263.44;5092947;28;20223;-66
2020/12/22 03:46:39;;;;;;;1.50;1.10;;;;;;;18.75;51.91;100267.84;5076149;28;20179;-64
2020/12/22 03:49:05;;;;;;;1.20;1.07;;;;;;;18.73;51.72;100268.03;5093547;28;20203;-64
2020/12/22 03:51:32;;;;;;;1.00;1.00;;;;;;;18.72;51.97;100268.22;5093501;28;20202;-64
2020/12/22 03:53:58;;;;;;;1.37;0.97;;;;;;;18.73;51.61;100267.19;5093502;28;20213;-64
2020/12/22 03:56:25;;;;;;;1.60;1.00;;;;;;;18.71;52.03;100267.38;5093572;28;20217;-65
2020/12/22 03:58:51;;;;;;;1.00;0.90;;;;;;;18.71;51.83;100272.78;5093575;28;20214;-65
2020/12/22 04:01:17;;;;;;;1.27;1.17;;;;;;;18.69;51.60;100264.84;5092715;28;20741;-65
2020/12/22 04:03:44;;;;;;;1.53;1.10;;;;;;;18.69;52.07;100272.09;5075813;28;20279;-65
2020/12/22 04:06:10;;;;;;;1.20;0.97;;;;;;;18.67;51.91;100280.41;5093234;28;20187;-65
2020/12/22 04:08:36;;;;;;;1.10;0.90;;;;;;;18.66;52.02;100283.31;5092054;28;20289;-65
2020/12/22 04:11:02;;;;;;;1.23;1.10;;;;;;;18.65;51.86;100271.63;5092173;28;20556;-67
2020/12/22 04:13:28;;;;;;;1.23;1.03;;;;;;;18.64;51.94;100278.06;5091130;28;20190;-64
2020/12/22 04:15:54;;;;;;;1.00;1.00;;;;;;;18.61;51.93;100272.97;5092196;28;20221;-64
2020/12/22 04:18:20;;;;;;;1.67;1.00;;;;;;;18.62;51.53;100276.53;5075171;28;20234;-65
2020/12/22 04:20:47;;;;;;;1.10;0.93;;;;;;;18.57;51.92;100268.94;5091971;28;20186;-64
2020/12/22 04:23:13;;;;;;;1.10;1.00;;;;;;;18.52;51.69;100281.34;5092764;28;20650;-67
2020/12/22 04:25:39;;;;;;;1.03;0.90;;;;;;;18.47;52.21;100276.47;5075033;28;20690;-67
2020/12/22 04:28:05;;;;;;;0.90;0.90;;;;;;;18.46;52.11;100272.06;5092872;28;20282;-66
2020/12/22 04:30:32;;;;;;;1.00;0.83;;;;;;;18.44;51.84;100274.09;5091957;28;20221;-64
2020/12/22 04:32:58;;;;;;;1.10;1.00;;;;;;;18.44;52.11;100275.94;5075243;28;20240;-65
2020/12/22 04:35:24;;;;;;;1.00;1.00;;;;;;;18.46;52.11;100290.19;5092703;28;20183;-67
2020/12/22 04:37:50;;;;;;;0.93;0.93;;;;;;;18.39;51.57;100290.88;5092553;28;20269;-66
2020/12/22 04:40:16;;;;;;;1.03;0.87;;;;;;;18.36;52.14;100287.69;5058223;28;20509;-63
2020/12/22 04:42:42;;;;;;;1.03;0.90;;;;;;;18.32;51.99;100299.91;5074859;28;20183;-63
2020/12/22 04:45:08;;;;;;;1.07;0.87;;;;;;;18.31;51.94;100309.06;5074764;28;20286;-64
2020/12/22 04:47:34;;;;;;;0.90;0.90;;;;;;;18.28;51.89;100298.56;5092348;28;20222;-64
2020/12/22 04:50:02;;;;;;;1.10;1.00;;;;;;;18.25;52.26;100312.47;5091232;28;20207;-63
2020/12/22 04:52:28;;;;;;;0.80;0.80;;;;;;;18.24;52.23;100310.78;5074838;28;20187;-63
2020/12/22 04:54:54;;;;;;;0.60;0.60;;;;;;;18.20;51.96;100312.13;5091370;28;20261;-64
2020/12/22 04:57:20;;;;;;;1.00;0.90;;;;;;;18.18;52.38;100319.59;5091330;28;20525;-64
2020/12/22 04:59:46;;;;;;;1.07;0.80;;;;;;;18.18;51.85;100322.31;5092193;28;20190;-64
2020/12/22 05:02:12;;;;;;;0.97;0.90;;;;;;;18.18;52.00;100319.59;5074627;28;20186;-63
2020/12/22 05:04:38;;;;;;;0.80;0.80;;;;;;;18.19;52.26;100329.41;5074419;28;20291;-64
2020/12/22 05:07:08;;;;;;;0.80;0.80;;;;;;;18.19;51.85;100322.13;5074462;28;20277;-65
2020/12/22 05:09:34;;;;;;;1.03;0.80;;;;;;;18.19;51.76;100326.69;5091249;28;20198;-63
2020/12/22 05:12:00;;;;;;;0.90;0.77;;;;;;;18.20;51.85;100325.69;5074390;28;20191;-64
2020/12/22 05:14:27;;;;;;;0.70;0.70;;;;;;;18.19;51.87;100326.69;5092172;28;20503;-63
2020/12/22 05:16:54;;;;;;;0.80;0.80;;;;;;;18.18;52.29;100327.72;5091198;28;20513;-66
2020/12/22 05:19:20;;;;;;;0.80;0.80;;;;;;;18.22;51.97;100329.09;5090792;28;20203;-64
2020/12/22 05:21:46;;;;;;;1.00;0.83;;;;;;;18.24;51.78;100336.00;5074318;28;20178;-63
2020/12/22 05:24:13;;;;;;;0.87;0.87;;;;;;;18.29;51.77;100325.50;5074131;28;20182;-65
2020/12/22 05:26:39;;;;;;;0.80;0.80;;;;;;;18.36;52.43;100325.63;5090724;28;20191;-64
2020/12/22 05:29:12;;;;;;;0.90;0.90;;;;;;;18.42;52.34;100333.88;5090792;28;20209;-64
2020/12/22 05:31:42;;;;;;;1.27;0.70;;;;;;;18.51;51.81;100333.88;5091614;28;20203;-64
2020/12/22 05:34:11;;;;;;;0.80;0.80;;;;;;;18.58;52.08;100340.25;5091628;28;20191;-64
2020/12/22 05:36:42;;;;;;;0.70;0.70;;;;;;;18.65;52.25;100333.13;5090695;28;20761;-64
2020/12/22 05:39:12;;;;;;;1.13;0.90;;;;;;;18.71;51.82;100343.28;5073706;28;20297;-63
2020/12/22 05:41:38;;;;;;;1.13;0.87;;;;;;;18.77;51.70;100342.56;5073983;28;20191;-64
2020/12/22 05:44:04;;;;;;;0.67;0.67;;;;;;;18.82;51.82;100344.72;5090827;28;20658;-65
2020/12/22 05:46:31;;;;;;;0.90;0.90;;;;;;;18.86;51.67;100354.19;5090740;28;20178;-64
2020/12/22 05:48:59;;;;;;;0.70;0.70;;;;;;;18.88;51.73;100344.00;5073824;28;20242;-65
2020/12/22 05:51:25;;;;;;;0.90;0.80;;;;;;;18.92;51.52;100356.19;5090638;28;20323;-64
2020/12/22 05:53:55;;;;;;;0.70;0.70;;;;;;;18.93;51.50;100352.47;5090722;28;20639;-65
2020/12/22 05:56:23;;;;;;;0.77;0.73;;;;;;;18.92;51.76;100358.88;5074466;28;20186;-64
2020/12/22 05:58:50;;;;;;;0.70;0.70;;;;;;;18.92;51.57;100364.31;5090457;28;20535;-63
2020/12/22 06:01:36;;;;;;;1.57;0.80;;;;;;;18.92;51.66;100358.88;5090619;28;20182;-64
2020/12/22 06:04:03;;;;;;;0.80;0.80;;;;;;;18.92;51.54;100361.59;5090608;28;20216;-63
2020/12/22 06:06:32;;;;;;;0.80;0.80;;;;;;;18.91;51.62;100368.91;5073951;28;20190;-64
2020/12/22 06:08:59;;;;;;;0.77;0.63;;;;;;;18.90;51.29;100369.06;5091313;28;20638;-66
2020/12/22 06:11:27;;;;;;;0.80;0.77;;;;;;;18.90;51.39;100369.06;5091097;28;20539;-66
2020/12/22 06:13:53;;;;;;;0.70;0.70;;;;;;;18.89;51.41;100378.22;5091302;28;20183;-66
2020/12/22 06:16:20;;;;;;;0.67;0.67;;;;;;;18.87;51.54;100377.56;5091188;28;20211;-67
2020/12/22 06:18:50;;;;;;;0.70;0.67;;;;;;;18.82;51.48;100382.69;5091281;28;20203;-63
2020/12/22 06:21:17;;;;;;;1.03;0.70;;;;;;;18.82;51.42;100382.69;5090519;28;20186;-63
2020/12/22 06:23:44;;;;;;;0.70;0.70;;;;;;;18.80;51.26;100385.59;5091311;28;20251;-64
2020/12/22 06:26:12;;;;;;;0.77;0.77;;;;;;;18.77;51.33;100385.94;5090735;28;20202;-64
2020/12/22 06:28:38;;;;;;;1.23;0.70;;;;;;;18.75;51.45;100384.44;5090553;28;20210;-64
2020/12/22 06:31:24;;;;;;;0.70;0.63;;;;;;;18.70;51.45;100385.81;5091233;28;20604;-64
2020/12/22 06:33:51;;;;;;;1.27;0.83;;;;;;;18.68;51.75;100390.53;5091249;28;20195;-64
2020/12/22 06:36:17;;;;;;;0.67;0.67;;;;;;;18.67;51.64;100396.13;5091179;28;20684;-64
2020/12/22 06:38:56;;;;;;;0.60;0.60;;;;;;;18.66;51.62;100398.00;5077250;28;20210;-64
2020/12/22 06:41:34;;;;;;;1.10;0.80;;;;;;;18.64;51.62;100402.75;5094453;28;20186;-63
2020/12/22 06:44:26;;;;;;;0.80;0.70;;;;;;;18.61;51.27;100407.66;5095024;28;20559;-64
2020/12/22 06:46:53;;;;;;;0.80;0.70;;;;;;;18.55;51.80;100408.38;5094724;28;20179;-64
2020/12/22 06:49:39;;;;;;;0.67;0.67;;;;;;;18.55;51.24;100427.34;5094603;28;20686;-64
2020/12/22 06:52:32;;;;;;;1.07;0.80;;;;;;;18.50;51.38;100419.75;5094675;28;20553;-64
2020/12/22 06:54:59;;;;;;;0.73;0.70;;;;;;;18.45;51.87;100418.56;5093832;28;20285;-64
2020/12/22 06:57:46;;;;;;;0.77;0.70;;;;;;;18.44;51.48;100423.13;5076516;28;20203;-63
2020/12/22 07:00:28;;;;;;;0.80;0.80;;;;;;;18.41;51.69;100418.91;5094629;28;20187;-64
2020/12/22 07:03:10;;;;;;;1.20;0.70;;;;;;;18.38;51.65;100429.25;5094781;28;20183;-64
2020/12/22 07:05:41;;;;;;;0.77;0.70;;;;;;;18.37;51.56;100430.28;5093749;28;20282;-66
2020/12/22 07:08:07;;;;;;;1.40;0.70;;;;;;;18.32;51.68;100430.81;5094554;28;20255;-64
2020/12/22 07:10:38;;;;;;;0.87;0.53;;;;;;;18.34;51.47;100444.19;5094560;28;20236;-64
2020/12/22 07:13:06;;;;;;;0.67;0.57;;;;;;;18.33;51.83;100431.66;5094523;28;20255;-64
2020/12/22 07:15:35;;;;;;;0.70;0.70;;;;;;;18.30;51.68;100432.84;5094320;28;20713;-67
2020/12/22 07:18:05;;;;;;;0.97;0.63;;;;;;;18.30;51.92;100440.13;5093355;28;20599;-64
2020/12/22 07:20:33;;;;;;;0.40;0.40;;;;;;;18.25;51.37;100450.63;5094374;28;20198;-64
2020/12/22 07:22:59;;;;;;;0.67;0.60;;;;;;;18.28;51.53;100443.00;5093295;28;20209;-65
2020/12/22 07:25:26;;;;;;;0.80;0.70;;;;;;;18.28;51.49;100447.59;5094253;28;20568;-65
2020/12/22 07:27:53;;;;;;;0.60;0.60;;;;;;;18.29;51.60;100450.13;5093262;28;20578;-64
2020/12/22 07:30:19;;;;;;;0.53;0.53;;;;;;;18.34;52.09;100452.31;5093837;28;20221;-64
2020/12/22 07:32:45;;;;;;;0.50;0.50;;;;;;;18.41;51.61;100464.97;5093923;28;20194;-66
2020/12/22 07:35:12;;;;;;;0.80;0.77;;;;;;;18.49;52.08;100457.88;5093302;28;20247;-66
2020/12/22 07:37:38;;;;;;;0.60;0.60;;;;;;;18.60;51.62;100454.75;5093961;28;20266;-64
2020/12/22 07:40:12;;;;;;;0.93;0.67;;;;;;;18.69;51.82;100460.03;5094132;28;20187;-65
2020/12/22 07:42:38;;;;;;;0.40;0.40;;;;;;;18.79;52.05;100464.41;5093948;28;20209;-64
2020/12/22 07:45:07;;;;;;;0.50;0.50;;;;;;;18.88;51.53;100463.31;5093750;28;20197;-67
2020/12/22 07:47:33;;;;;;;0.50;0.50;;;;;;;18.94;51.81;100479.75;5093655;28;20240;-67
2020/12/22 07:50:16;;;;;;;0.50;0.50;;;;;;;18.99;51.40;100480.06;5093815;28;20229;-67
2020/12/22 07:52:42;;;;;;;0.50;0.50;;;;;;;19.05;51.67;100492.06;5093801;28;20183;-67
2020/12/22 07:55:08;;;;;;;0.60;0.60;;;;;;;19.07;51.57;100484.59;5059273;28;20179;-65
2020/12/22 07:57:38;;;;;;;0.53;0.53;;;;;;;19.09;51.48;100509.69;5075738;28;20219;-68
2020/12/22 08:00:05;;;;;;;0.60;0.60;;;;;;;19.12;51.22;100501.19;5093789;28;20194;-66
2020/12/22 08:02:32;;;;;;;0.60;0.60;;;;;;;19.12;51.28;100494.91;5092552;28;20194;-64
2020/12/22 08:05:18;;;;;;;0.80;0.50;;;;;;;19.13;51.29;100499.31;5093334;28;20231;-64
2020/12/22 08:07:51;;;;;;;0.53;0.53;;;;;;;19.13;51.54;100500.16;5092154;28;20313;-71
2020/12/22 08:10:17;;;;;;;0.60;0.60;;;;;;;19.15;51.62;100498.13;5092145;28;20203;-67
2020/12/22 08:12:44;;;;;;;0.57;0.57;;;;;;;19.17;52.08;100506.97;5092254;28;20213;-68
2020/12/22 08:15:11;;;;;;;1.23;0.50;;;;;;;19.16;51.97;100510.66;5090762;28;20194;-69
2020/12/22 08:17:42;;;;;;;0.87;0.50;;;;;;;19.16;52.06;100505.22;5092024;28;20441;-71
2020/12/22 08:20:08;;;;;;;2.50;0.60;;;;;;;19.12;51.95;100509.31;5076056;28;20562;-72
2020/12/22 08:22:35;;;;;;;0.97;0.40;;;;;;;19.11;52.00;100523.91;5075330;28;20183;-72
2020/12/22 08:25:02;;;;;;;0.50;0.50;;;;;;;19.11;52.20;100506.78;5058810;28;20274;-73
2020/12/22 08:27:30;;;;;;;0.60;0.60;;;;;;;19.07;52.22;100516.31;5091986;28;20207;-68
2020/12/22 08:29:56;;;;;;;0.70;0.63;;;;;;;19.06;51.98;100520.91;5075208;28;20183;-68
2020/12/22 08:32:24;;;;;;;1.53;0.50;;;;;;;19.02;51.94;100536.69;5093028;28;20187;-68
2020/12/22 08:34:52;;;;;;;0.60;0.60;;;;;;;18.99;52.01;100538.91;5075381;28;20182;-69
2020/12/22 08:37:25;;;;;;;0.60;0.60;;;;;;;18.97;52.10;100549.09;5075391;28;20187;-66
2020/12/22 08:39:51;;;;;;;0.83;0.60;;;;;;;18.95;52.03;100557.41;5075883;28;20171;-65
2020/12/22 08:42:17;;;;;;;0.80;0.60;;;;;;;18.93;52.08;100556.72;5074721;28;20285;-65
2020/12/22 08:44:50;;;;;;;1.07;0.50;;;;;;;18.92;52.21;100562.28;5058029;28;20195;-72
2020/12/22 08:47:16;;;;;;;0.60;0.60;;;;;;;18.88;51.82;100572.66;5091434;28;20179;-68
2020/12/22 08:49:42;;;;;;;0.83;0.70;;;;;;;18.86;51.62;100569.28;5057805;28;20274;-68
2020/12/22 08:52:10;;;;;;;0.50;0.50;;;;;;;18.83;52.03;100568.78;5091555;28;20183;-68
2020/12/22 08:54:36;;;;;;;0.83;0.50;;;;;;;18.82;51.64;100575.22;5091344;28;20190;-68
2020/12/22 08:57:20;;;;;;;1.13;0.60;;;;;;;18.77;51.71;100591.16;5091431;28;20187;-68
2020/12/22 08:59:46;;;;;;;0.60;0.60;;;;;;;18.73;52.21;100590.66;5091786;28;20248;-66
2020/12/22 09:02:29;;;;;;;0.70;0.70;;;;;;;18.73;51.82;100601.50;5092528;28;20595;-67
2020/12/22 09:04:56;;;;;;;0.97;0.50;;;;;;;18.71;52.05;100603.56;5091646;28;20679;-66
2020/12/22 09:07:25;;;;;;;1.20;0.50;;;;;;;18.66;51.92;100608.63;5091416;28;20189;-66
2020/12/22 09:09:52;;;;;;;0.43;0.43;;;;;;;18.63;51.74;100601.69;5091364;28;20179;-67
2020/12/22 09:12:18;;;;;;;0.60;0.60;;;;;;;18.59;51.75;100600.31;5074589;28;20652;-70
2020/12/22 09:14:48;;;;;;;0.60;0.50;;;;;;;18.60;51.74;100618.25;5092102;28;20198;-69
2020/12/22 09:17:30;;;;;;;0.50;0.50;;;;;;;18.61;51.73;100609.09;5074415;28;20194;-69
2020/12/22 09:19:57;;;;;;;1.23;0.50;;;;;;;18.58;52.04;100611.31;5091346;28;20661;-67
2020/12/22 09:22:27;;;;;;;0.70;0.50;;;;;;;18.56;51.58;100603.34;5074437;28;20179;-67
2020/12/22 09:24:57;;;;;;;0.83;0.67;;;;;;;18.57;51.95;100618.59;5090979;28;20270;-67
2020/12/22 09:27:34;;;;;;;1.27;0.60;;;;;;;18.53;51.85;100617.25;5074082;28;20207;-70
2020/12/22 09:30:00;;;;;;;0.63;0.40;;;;;;;18.51;51.77;100630.13;5073863;28;20202;-64
2020/12/22 09:32:26;;;;;;;1.77;0.70;;;;;;;18.44;51.95;100618.25;5090904;28;20198;-68
2020/12/22 09:34:52;;;;;;;0.90;0.50;;;;;;;18.43;52.10;100638.25;5074146;28;20193;-72
2020/12/22 09:37:20;;;;;;;0.50;0.50;;;;;;;18.40;51.90;100649.44;5074160;28;20209;-71
2020/12/22 09:39:46;;;;;;;0.40;0.40;;;;;;;18.38;52.22;100641.47;5090961;28;20605;-72
2020/12/22 09:42:12;;;;;;;1.23;0.50;;;;;;;18.38;52.40;100649.59;5091036;28;20244;-64
2020/12/22 09:44:38;;;;;;;0.80;0.50;;;;;;;18.41;52.58;100642.97;5057446;28;20270;-64
2020/12/22 09:47:04;;;;;;;0.70;0.70;;;;;;;18.43;52.58;100649.09;5090894;28;20608;-64
2020/12/22 09:49:30;;;;;;;0.50;0.50;;;;;;;18.46;52.63;100654.19;5090526;28;20213;-65
2020/12/22 09:51:57;;;;;;;1.30;0.60;;;;;;;18.48;52.23;100652.16;5090746;28;20268;-64
2020/12/22 09:54:23;;;;;;;0.50;0.40;;;;;;;18.50;52.63;100644.69;5090585;28;20236;-66
2020/12/22 09:56:49;;;;;;;0.57;0.50;;;;;;;18.53;52.35;100651.66;5090707;28;20183;-66
2020/12/22 09:59:16;;;;;;;0.43;0.43;;;;;;;18.53;52.35;100655.19;5090708;28;20596;-67
2020/12/22 10:01:42;;;;;;;0.93;0.30;;;;;;;18.55;52.17;100655.88;5057238;28;20210;-64
2020/12/22 10:04:09;;;;;;;0.80;0.40;;;;;;;18.54;52.35;100667.72;5057153;28;20187;-65
2020/12/22 10:06:35;;;;;;;0.97;0.70;;;;;;;18.53;52.44;100671.47;5057072;28;20197;-67
2020/12/22 10:09:01;;;;;;;0.80;0.63;;;;;;;18.53;52.41;100673.31;5091129;28;20203;-70
2020/12/22 10:11:29;;;;;;;0.77;0.50;;;;;;;18.54;52.01;100678.59;5057091;28;20218;-69
2020/12/22 10:13:55;;;;;;;0.47;0.47;;;;;;;18.52;52.02;100680.63;5078116;28;20193;-68
2020/12/22 10:16:22;;;;;;;0.43;0.43;;;;;;;18.51;52.19;100678.91;5094762;28;20584;-64
2020/12/22 10:18:48;;;;;;;0.77;0.50;;;;;;;18.50;52.19;100687.22;5077685;28;20206;-67
2020/12/22 10:21:16;;;;;;;0.27;0.27;;;;;;;18.47;52.01;100683.00;5094729;28;20232;-67
2020/12/22 10:23:42;;;;;;;0.43;0.43;;;;;;;18.47;52.30;100687.56;5094471;28;20564;-72
2020/12/22 10:26:14;;;;;;;0.80;0.70;;;;;;;18.45;52.36;100695.84;5077744;28;20183;-68
2020/12/22 10:28:41;;;;;;;0.30;0.30;;;;;;;18.22;51.87;100668.56;5094372;28;20416;-67
2020/12/22 10:31:10;;;;;;;0.40;0.30;;;;;;;18.41;51.97;100695.31;5077777;28;20203;-67
2020/12/22 10:33:36;;;;;;;1.30;0.50;;;;;;;18.41;52.25;100691.75;5094359;28;20542;-68
2020/12/22 10:36:03;;;;;;;0.40;0.30;;;;;;;18.40;51.87;100687.34;5095262;28;20182;-71
2020/12/22 10:38:29;;;;;;;0.77;0.47;;;;;;;18.38;52.13;100692.09;5094361;28;20654;-67
2020/12/22 10:40:55;;;;;;;0.70;0.40;;;;;;;18.37;52.24;100688.53;5094094;28;20206;-64
2020/12/22 10:43:21;;;;;;;0.40;0.40;;;;;;;18.39;51.92;100710.91;5077115;28;20525;-64
2020/12/22 10:45:47;;;;;;;0.60;0.40;;;;;;;18.38;52.02;100705.66;5094822;28;20293;-64
2020/12/22 10:48:14;;;;;;;0.57;0.50;;;;;;;18.36;51.92;100722.09;5076965;28;20211;-64
2020/12/22 10:50:40;;;;;;;0.70;0.40;;;;;;;18.37;52.09;100725.63;5094505;28;20221;-64
2020/12/22 10:53:07;;;;;;;0.60;0.60;;;;;;;18.40;52.26;100722.59;5077135;28;20528;-70
2020/12/22 10:55:33;;;;;;;0.40;0.40;;;;;;;18.44;51.91;100726.66;5060478;28;20187;-70
2020/12/22 10:57:59;;;;;;;0.37;0.37;;;;;;;18.50;52.27;100726.00;5077136;28;20836;-72
2020/12/22 11:00:25;;;;;;;0.50;0.40;;;;;;;18.55;52.05;100729.06;5091809;28;20191;-71
2020/12/22 11:02:56;;;;;;;0.40;0.40;;;;;;;18.61;52.04;100722.97;5073503;28;20183;-64
2020/12/22 11:08:08;;;;;;;0.30;0.30;;;;;;;18.72;51.66;100718.28;5079046;28;20217;-67
2020/12/22 11:10:34;;;;;;;0.30;0.30;;;;;;;18.76;51.91;100715.06;5076840;28;20298;-69
2020/12/22 11:13:00;;;;;;;0.40;0.40;;;;;;;18.82;51.85;100714.38;5060344;28;20298;-66
2020/12/22 11:15:26;;;;;;;0.63;0.43;;;;;;;18.88;51.97;100718.25;5076928;28;20187;-66
2020/12/22 11:17:53;;;;;;;0.60;0.40;;;;;;;18.90;51.77;100727.06;5076535;28;20202;-63
2020/12/22 11:20:19;;;;;;;0.30;0.30;;;;;;;18.95;51.60;100725.56;5060925;28;20622;-69
2020/12/22 11:22:46;;;;;;;0.73;0.30;;;;;;;18.97;51.77;100728.94;5094057;28;20194;-69
2020/12/22 11:25:13;;;;;;;0.53;0.40;;;;;;;18.99;51.48;100731.50;5077187;28;20531;-69
2020/12/22 11:27:39;;;;;;;0.50;0.50;;;;;;;19.01;51.55;100729.44;5093369;28;20227;-69
2020/12/22 11:30:05;;;;;;;0.40;0.40;;;;;;;19.02;51.78;100736.56;5076974;28;20195;-69
2020/12/22 11:32:31;;;;;;;0.40;0.40;;;;;;;19.04;51.78;100733.69;5076176;28;20290;-68